KCDC/CDC METAR and TAF weather

Enter ICAO airport designator
Station Type Date Time Source
KCDC METAR 2024/07/23 17:53 UTC NOAA

KCDC 231753Z AUTO 00000KT 10SM CLR 32/06 A3022 RMK AO2 SLP136 T03170061 10317 20183 $


Station Type Date Time Source
KCDC Decoded METAR 2024/07/23 17:53 UTC NOAA

CEDAR CITY MUN AIRPORT, UT, United States (KCDC) 37-42N 113-06W 1714M
Jul 23, 2024 - 01:53 PM EDT / 2024.07.23 1753 UTC
Wind: Calm:0
Visibility: 10 mile(s):0
Sky conditions: clear
Temperature: 89.1 F (31.7 C)
Dew Point: 43.0 F (6.1 C)
Relative Humidity: 20%
Pressure (altimeter): 30.22 in. Hg (1023 hPa)
ob: KCDC 231753Z AUTO 00000KT 10SM CLR 32/06 A3022 RMK AO2 SLP136 T03170061 10317 20183
cycle: 18

Station Type Date Time Source
KCDC TAF 2024/07/23 18:22 UTC NOAA